createdAt,value
2024-05-09T00:03:00.288Z,101741.94
2024-05-09T00:06:08.249Z,101737.19
2024-05-09T00:09:14.575Z,101742.72
2024-05-09T00:12:31.971Z,101744.78
2024-05-09T00:15:40.810Z,101743.06
2024-05-09T00:18:47.102Z,101739.22
2024-05-09T00:21:53.445Z,101738.78
2024-05-09T00:25:02.090Z,101735.84
2024-05-09T00:28:12.681Z,101747.91
2024-05-09T00:31:23.035Z,101751.38
2024-05-09T00:34:33.912Z,101742.13
2024-05-09T00:37:40.255Z,101743.28
2024-05-09T00:40:48.020Z,101742.44
2024-05-09T00:43:54.446Z,101746.25
2024-05-09T00:47:00.882Z,101744.31
2024-05-09T00:50:15.483Z,101730.09
2024-05-09T00:53:27.178Z,101747.50
2024-05-09T00:56:38.203Z,101754.38
2024-05-09T00:59:47.794Z,101750.59
2024-05-09T01:02:55.862Z,101747.06
2024-05-09T01:06:10.384Z,101746.25
2024-05-09T01:09:23.149Z,101749.91
2024-05-09T01:12:36.811Z,101749.25
2024-05-09T01:15:58.092Z,101749.25
2024-05-09T01:19:08.045Z,101748.28
2024-05-09T01:22:14.405Z,101737.94
2024-05-09T01:25:21.937Z,101737.88
2024-05-09T01:28:28.251Z,101731.28
2024-05-09T01:31:35.652Z,101742.50
2024-05-09T01:34:41.838Z,101731.03
2024-05-09T01:37:47.985Z,101726.06
2024-05-09T01:40:54.716Z,101731.47
2024-05-09T01:44:01.833Z,101736.19
2024-05-09T01:47:10.029Z,101734.69
2024-05-09T01:50:25.308Z,101736.66
2024-05-09T01:53:40.018Z,101744.69
2024-05-09T01:56:46.201Z,101741.34
2024-05-09T01:59:52.432Z,101735.03
2024-05-09T02:02:58.802Z,101737.53
2024-05-09T02:06:09.889Z,101735.41
2024-05-09T02:09:20.121Z,101742.94
2024-05-09T02:12:34.565Z,101732.19
2024-05-09T02:15:55.964Z,101743.59
2024-05-09T02:19:02.602Z,101746.31
2024-05-09T02:22:13.351Z,101744.28
2024-05-09T02:25:21.341Z,101745.03
2024-05-09T02:28:27.502Z,101745.03
2024-05-09T02:31:35.773Z,101749.59
2024-05-09T02:34:48.474Z,101753.13
2024-05-09T02:37:59.367Z,101759.81
2024-05-09T02:41:12.297Z,101756.53
2024-05-09T02:44:20.146Z,101758.00
2024-05-09T02:47:36.055Z,101754.75
2024-05-09T02:50:48.639Z,101759.97
2024-05-09T02:54:00.044Z,101759.63
2024-05-09T02:57:08.042Z,101757.09
2024-05-09T03:00:22.810Z,101767.13
2024-05-09T03:03:37.402Z,101759.44
2024-05-09T03:06:47.855Z,101760.81
2024-05-09T03:13:18.955Z,101763.28
2024-05-09T03:16:25.201Z,101758.53
2024-05-09T03:19:36.376Z,101766.91
2024-05-09T03:22:50.784Z,101765.59
2024-05-09T03:26:04.300Z,101751.59
2024-05-09T03:29:11.814Z,101751.97
2024-05-09T03:32:18.321Z,101757.22
2024-05-09T03:35:25.823Z,101760.53
2024-05-09T03:38:35.714Z,101751.84
2024-05-09T03:41:47.429Z,101741.47
2024-05-09T03:44:55.768Z,101744.78
2024-05-09T03:48:04.319Z,101742.34
2024-05-09T03:51:12.122Z,101747.22
2024-05-09T03:54:18.668Z,101745.88
2024-05-09T03:57:24.954Z,101746.91
2024-05-09T04:00:38.734Z,101736.88
2024-05-09T04:03:50.744Z,101742.44
2024-05-09T04:07:06.466Z,101740.53
2024-05-09T04:10:21.191Z,101753.38
2024-05-09T04:13:34.108Z,101744.91
2024-05-09T04:16:44.079Z,101752.50
2024-05-09T04:19:51.975Z,101748.41
2024-05-09T04:22:58.355Z,101753.44
2024-05-09T04:26:05.059Z,101745.31
2024-05-09T04:29:13.748Z,101744.19
2024-05-09T04:32:23.862Z,101736.84
2024-05-09T04:35:30.406Z,101743.91
2024-05-09T04:38:37.049Z,101750.03
2024-05-09T04:41:46.497Z,101755.06
2024-05-09T04:44:58.250Z,101755.66
2024-05-09T04:48:06.643Z,101755.38
2024-05-09T04:51:14.172Z,101747.22
2024-05-09T04:54:30.508Z,101746.81
2024-05-09T04:57:43.219Z,101750.44
2024-05-09T05:00:52.845Z,101737.56
2024-05-09T05:04:04.631Z,101734.38
2024-05-09T05:07:13.052Z,101748.75
2024-05-09T05:10:25.443Z,101758.16
2024-05-09T05:13:44.596Z,101747.22
2024-05-09T05:16:53.363Z,101746.13
2024-05-09T05:20:01.485Z,101747.75
2024-05-09T05:23:14.480Z,101741.16
2024-05-09T05:26:22.139Z,101738.78
2024-05-09T05:29:32.082Z,101747.50
2024-05-09T05:32:41.457Z,101744.19
2024-05-09T05:35:48.833Z,101746.66
2024-05-09T05:38:56.097Z,101744.75
2024-05-09T05:42:05.324Z,101749.66
2024-05-09T05:45:14.664Z,101744.81
2024-05-09T05:48:23.625Z,101737.88
2024-05-09T05:51:33.257Z,101739.31
2024-05-09T05:54:39.526Z,101739.22
2024-05-09T05:57:49.131Z,101748.69
2024-05-09T06:00:59.887Z,101743.22
2024-05-09T06:04:07.542Z,101758.34
2024-05-09T06:07:16.970Z,101757.38
2024-05-09T06:10:30.388Z,101754.84
2024-05-09T06:13:48.773Z,101743.22
2024-05-09T06:16:58.063Z,101745.81
2024-05-09T06:20:09.103Z,101732.66
2024-05-09T06:23:20.440Z,101734.44
2024-05-09T06:26:28.546Z,101731.19
2024-05-09T06:29:39.063Z,101728.03
2024-05-09T06:32:47.868Z,101732.66
2024-05-09T06:35:59.637Z,101730.34
2024-05-09T06:39:05.867Z,101724.25
2024-05-09T06:42:16.355Z,101722.84
2024-05-09T06:45:25.019Z,101717.97
2024-05-09T06:48:37.632Z,101729.91
2024-05-09T06:51:44.764Z,101716.22
2024-05-09T06:54:52.103Z,101710.38
2024-05-09T06:58:04.976Z,101707.41
2024-05-09T07:01:12.795Z,101704.44
2024-05-09T07:04:19.793Z,101713.63
2024-05-09T07:07:27.677Z,101710.81
2024-05-09T07:10:37.350Z,101708.13
2024-05-09T07:13:45.809Z,101706.44
2024-05-09T07:16:53.804Z,101713.41
2024-05-09T07:20:02.340Z,101699.75
2024-05-09T07:23:15.869Z,101700.03
2024-05-09T07:26:24.035Z,101698.78
2024-05-09T07:29:34.772Z,101698.09
2024-05-09T07:32:50.011Z,101693.38
2024-05-09T07:35:57.144Z,101696.19
2024-05-09T07:39:06.176Z,101696.97
2024-05-09T07:42:16.386Z,101691.22
2024-05-09T07:45:44.970Z,101692.84
2024-05-09T07:55:31.746Z,101687.97
2024-05-09T07:58:41.180Z,101693.72
2024-05-09T08:01:48.954Z,101695.09
2024-05-09T08:04:56.254Z,101695.34
2024-05-09T08:08:06.860Z,101695.59
2024-05-09T08:11:18.001Z,101702.44
2024-05-09T08:14:25.317Z,101694.72
2024-05-09T08:17:35.441Z,101692.28
2024-05-09T08:20:45.933Z,101697.38
2024-05-09T08:23:54.141Z,101695.19
2024-05-09T08:27:03.458Z,101691.53
2024-05-09T08:30:18.984Z,101690.91
2024-05-09T08:33:32.407Z,101682.66
2024-05-09T08:36:42.141Z,101682.38
2024-05-09T08:39:56.132Z,101674.44
2024-05-09T08:43:06.159Z,101668.41
2024-05-09T08:46:18.878Z,101670.38
2024-05-09T08:49:29.156Z,101666.50
2024-05-09T08:52:36.527Z,101658.03
2024-05-09T08:55:44.160Z,101667.59
2024-05-09T08:58:54.076Z,101663.88
2024-05-09T09:02:04.407Z,101664.22
2024-05-09T09:05:22.902Z,101656.22
2024-05-09T09:08:31.679Z,101656.44
2024-05-09T09:11:42.423Z,101648.53
2024-05-09T09:14:50.195Z,101657.19
2024-05-09T09:18:02.248Z,101650.91
2024-05-09T09:21:09.890Z,101657.28
2024-05-09T09:24:18.950Z,101655.72
2024-05-09T09:27:26.728Z,101655.47
2024-05-09T09:30:37.413Z,101659.94
2024-05-09T09:33:51.449Z,101666.59
2024-05-09T09:37:08.426Z,101659.53
2024-05-09T09:40:32.966Z,101653.81
2024-05-09T09:43:43.524Z,101660.97
2024-05-09T09:46:50.082Z,101670.25
2024-05-09T09:49:59.709Z,101656.97
2024-05-09T09:53:09.986Z,101654.66
2024-05-09T09:56:18.750Z,101653.69
2024-05-09T09:59:25.733Z,101645.91
2024-05-09T10:02:32.503Z,101642.94
2024-05-09T10:05:42.165Z,101638.78
2024-05-09T10:08:56.017Z,101639.53
2024-05-09T10:12:25.871Z,101634.75
2024-05-09T10:15:33.221Z,101635.84
2024-05-09T10:18:44.722Z,101626.06
2024-05-09T10:21:55.016Z,101630.13
2024-05-09T10:25:10.745Z,101626.88
2024-05-09T10:28:19.451Z,101624.56
2024-05-09T10:31:26.858Z,101621.59
2024-05-09T10:34:38.628Z,101625.09
2024-05-09T10:37:48.587Z,101626.38
2024-05-09T10:41:02.464Z,101609.59
2024-05-09T10:44:21.020Z,101622.34
2024-05-09T10:47:31.951Z,101629.84
2024-05-09T10:50:46.854Z,101626.44
2024-05-09T10:53:58.808Z,101623.91
2024-05-09T10:57:10.468Z,101609.97
2024-05-09T11:00:27.244Z,101618.75
2024-05-09T11:03:39.498Z,101611.38
2024-05-09T11:06:48.274Z,101608.25
2024-05-09T11:09:59.780Z,101612.22
2024-05-09T11:13:10.056Z,101604.84
2024-05-09T11:16:26.763Z,101593.22
2024-05-09T11:19:51.253Z,101592.59
2024-05-09T11:22:59.059Z,101589.59
2024-05-09T11:26:06.707Z,101589.13
2024-05-09T11:29:41.799Z,101581.63
2024-05-09T11:33:10.835Z,101583.69
2024-05-09T11:36:21.134Z,101574.13
2024-05-09T11:39:29.182Z,101573.75
2024-05-09T11:42:38.799Z,101581.75
2024-05-09T11:46:07.720Z,101565.53
2024-05-09T11:49:22.515Z,101561.91
2024-05-09T11:52:30.669Z,101563.28
2024-05-09T11:55:39.191Z,101555.78
2024-05-09T11:58:47.445Z,101545.84
2024-05-09T12:01:56.828Z,101547.81
2024-05-09T12:05:06.973Z,101549.84
2024-05-09T12:08:14.443Z,101540.88
2024-05-09T12:11:24.753Z,101538.41
2024-05-09T12:14:31.514Z,101529.75
2024-05-09T12:17:39.739Z,101528.06
2024-05-09T12:20:54.900Z,101533.06
2024-05-09T12:24:03.986Z,101531.38
2024-05-09T12:27:16.471Z,101535.16
2024-05-09T12:30:36.731Z,101528.34
2024-05-09T12:33:47.280Z,101525.22
2024-05-09T12:36:56.335Z,101515.66
2024-05-09T12:40:06.704Z,101508.63
2024-05-09T12:43:17.957Z,101509.97
2024-05-09T12:46:26.952Z,101504.91
2024-05-09T12:49:33.709Z,101500.09
2024-05-09T12:52:40.783Z,101495.66
2024-05-09T12:55:56.577Z,101492.06
2024-05-09T12:59:10.996Z,101497.69
2024-05-09T13:02:18.761Z,101488.91
2024-05-09T13:05:28.835Z,101473.19
2024-05-09T13:08:35.725Z,101478.00
2024-05-09T13:11:46.064Z,101474.19
2024-05-09T13:14:52.390Z,101468.34
2024-05-09T13:18:03.198Z,101473.13
2024-05-09T13:21:13.272Z,101458.75
2024-05-09T13:24:20.760Z,101457.88
2024-05-09T13:27:30.086Z,101454.81
2024-05-09T13:30:42.002Z,101449.44
2024-05-09T13:33:51.249Z,101453.44
2024-05-09T13:36:58.299Z,101442.94
2024-05-09T13:40:09.540Z,101444.03
2024-05-09T13:43:23.191Z,101441.09
2024-05-09T13:46:32.141Z,101425.28
2024-05-09T13:49:41.184Z,101416.41
2024-05-09T13:52:47.896Z,101431.09
2024-05-09T13:55:56.430Z,101429.63
2024-05-09T13:59:05.230Z,101422.56
2024-05-09T14:02:16.109Z,101417.94
2024-05-09T14:05:22.732Z,101425.03
2024-05-09T14:08:31.095Z,101413.13
2024-05-09T14:11:42.661Z,101410.13
2024-05-09T14:14:50.845Z,101409.34
2024-05-09T14:18:00.195Z,101400.03
2024-05-09T14:21:11.249Z,101401.22
2024-05-09T14:24:20.065Z,101403.81
2024-05-09T14:27:26.384Z,101399.03
2024-05-09T14:30:37.614Z,101391.38
2024-05-09T14:33:48.995Z,101388.31
2024-05-09T14:36:59.427Z,101385.34
2024-05-09T14:40:25.979Z,101377.88
2024-05-09T14:43:40.059Z,101378.19
2024-05-09T14:46:52.232Z,101375.28
2024-05-09T14:49:59.377Z,101360.28
2024-05-09T14:53:08.449Z,101356.03
2024-05-09T14:56:15.206Z,101353.78
2024-05-09T14:59:23.587Z,101352.75
2024-05-09T15:02:32.750Z,101342.69
2024-05-09T15:05:42.853Z,101341.69
2024-05-09T15:08:59.219Z,101348.22
2024-05-09T15:12:10.249Z,101340.28
2024-05-09T15:15:18.396Z,101333.38
2024-05-09T15:18:25.062Z,101329.09
2024-05-09T15:21:33.605Z,101319.69
2024-05-09T15:24:42.835Z,101327.00
2024-05-09T15:27:52.992Z,101321.00
2024-05-09T15:31:05.528Z,101313.94
2024-05-09T15:34:16.314Z,101320.50
2024-05-09T15:37:24.654Z,101313.94
2024-05-09T15:40:39.528Z,101298.16
2024-05-09T15:43:47.942Z,101309.41
2024-05-09T15:46:59.682Z,101296.19
2024-05-09T15:50:14.487Z,101304.38
2024-05-09T15:53:26.574Z,101297.63
2024-05-09T15:56:34.028Z,101270.88
2024-05-09T15:59:44.206Z,101283.84
2024-05-09T16:02:50.439Z,101294.69
2024-05-09T16:06:00.222Z,101285.47
2024-05-09T16:09:16.076Z,101287.06
2024-05-09T16:12:24.844Z,101284.31
2024-05-09T16:15:32.180Z,101276.38
2024-05-09T16:18:41.744Z,101276.81
2024-05-09T16:21:49.798Z,101275.66
2024-05-09T16:25:02.464Z,101280.47
2024-05-09T16:28:13.470Z,101267.75
2024-05-09T16:31:21.003Z,101267.19
2024-05-09T16:34:29.014Z,101264.44
2024-05-09T16:37:35.279Z,101268.13
2024-05-09T16:40:42.977Z,101277.03
2024-05-09T16:43:51.794Z,101262.84
2024-05-09T16:47:04.997Z,101264.19
2024-05-09T16:50:19.120Z,101270.88
2024-05-09T16:53:30.696Z,101261.97
2024-05-09T16:56:38.382Z,101260.84
2024-05-09T16:59:46.382Z,101256.19
2024-05-09T17:02:54.743Z,101263.22
2024-05-09T17:06:10.499Z,101253.41
2024-05-09T17:09:19.765Z,101250.72
2024-05-09T17:12:27.053Z,101255.53
2024-05-09T17:15:33.878Z,101257.69
2024-05-09T17:18:42.402Z,101262.47
2024-05-09T17:21:53.094Z,101254.66
2024-05-09T17:25:00.490Z,101257.47
2024-05-09T17:28:08.977Z,101248.31
2024-05-09T17:31:16.703Z,101248.38
2024-05-09T17:34:29.052Z,101256.28
2024-05-09T17:37:36.235Z,101243.06
2024-05-09T17:40:42.686Z,101242.69
2024-05-09T17:43:50.741Z,101236.91
2024-05-09T17:46:59.149Z,101240.44
2024-05-09T17:50:11.794Z,101241.19
2024-05-09T17:53:27.412Z,101236.53
2024-05-09T17:56:42.898Z,101243.56
2024-05-09T17:59:52.273Z,101237.47
2024-05-09T18:02:59.309Z,101246.97
2024-05-09T18:06:05.821Z,101238.09
2024-05-09T18:09:16.033Z,101239.31
2024-05-09T18:12:22.780Z,101232.00
2024-05-09T18:15:29.953Z,101241.16
2024-05-09T18:18:36.469Z,101237.75
2024-05-09T18:21:48.306Z,101238.13
2024-05-09T18:24:56.781Z,101238.94
2024-05-09T18:28:03.742Z,101236.28
2024-05-09T18:31:10.474Z,101238.22
2024-05-09T18:34:20.361Z,101253.59
2024-05-09T18:37:28.031Z,101253.09
2024-05-09T18:40:40.167Z,101224.63
2024-05-09T18:43:51.086Z,101249.00
2024-05-09T18:47:01.186Z,101247.94
2024-05-09T18:50:17.392Z,101244.69
2024-05-09T18:53:31.362Z,101260.31
2024-05-09T18:56:39.671Z,101255.97
2024-05-09T18:59:49.890Z,101262.81
2024-05-09T19:02:59.459Z,101268.56
2024-05-09T19:06:07.229Z,101260.34
2024-05-09T19:09:17.372Z,101265.56
2024-05-09T19:12:24.899Z,101262.00
2024-05-09T19:15:31.799Z,101263.13
2024-05-09T19:18:40.382Z,101254.91
2024-05-09T19:21:50.736Z,101256.53
2024-05-09T19:24:58.814Z,101246.97
2024-05-09T19:28:07.576Z,101250.47
2024-05-09T19:31:17.494Z,101247.75
2024-05-09T19:34:24.704Z,101241.72
2024-05-09T19:37:31.880Z,101249.66
2024-05-09T19:40:41.844Z,101251.31
2024-05-09T19:43:53.122Z,101249.06
2024-05-09T19:47:00.160Z,101251.28
2024-05-09T19:50:13.974Z,101251.53
2024-05-09T19:53:26.696Z,101241.13
2024-05-09T19:56:32.868Z,101250.97
2024-05-09T19:59:40.089Z,101251.22
2024-05-09T20:02:46.763Z,101256.13
2024-05-09T20:05:54.452Z,101252.03
2024-05-09T20:09:03.221Z,101258.56
2024-05-09T20:12:09.700Z,101253.56
2024-05-09T20:15:19.006Z,101253.00
2024-05-09T20:18:25.513Z,101249.16
2024-05-09T20:21:35.217Z,101249.66
2024-05-09T20:24:44.377Z,101254.03
2024-05-09T20:27:52.588Z,101244.19
2024-05-09T20:31:02.152Z,101247.69
2024-05-09T20:34:10.071Z,101244.13
2024-05-09T20:37:19.482Z,101252.88
2024-05-09T20:40:32.503Z,101242.53
2024-05-09T20:43:42.331Z,101237.16
2024-05-09T20:46:49.567Z,101242.91
2024-05-09T20:49:56.987Z,101244.34
2024-05-09T20:53:03.208Z,101279.84
2024-05-09T20:56:11.412Z,101264.19
2024-05-09T20:59:20.856Z,101267.34
2024-05-09T21:02:40.440Z,101260.84
2024-05-09T21:05:47.438Z,101255.38
2024-05-09T21:08:55.831Z,101265.25
2024-05-09T21:12:02.188Z,101271.47
2024-05-09T21:15:08.682Z,101272.44
2024-05-09T21:18:16.602Z,101275.69
2024-05-09T21:21:23.722Z,101269.22
2024-05-09T21:24:30.850Z,101278.84
2024-05-09T21:27:39.431Z,101264.06
2024-05-09T21:30:46.901Z,101269.03
2024-05-09T21:33:55.535Z,101263.72
2024-05-09T21:37:02.477Z,101267.94
2024-05-09T21:40:13.873Z,101263.91
2024-05-09T21:43:29.582Z,101266.78
2024-05-09T21:46:35.990Z,101272.75
2024-05-09T21:49:43.258Z,101265.47
2024-05-09T21:52:49.709Z,101271.53
2024-05-09T21:55:57.094Z,101271.53
2024-05-09T21:59:03.795Z,101270.88
2024-05-09T22:02:12.982Z,101268.47
2024-05-09T22:05:19.377Z,101267.16
2024-05-09T22:08:27.656Z,101269.63
2024-05-09T22:11:36.806Z,101269.25
2024-05-09T22:14:45.786Z,101265.47
2024-05-09T22:17:54.120Z,101260.66
2024-05-09T22:21:02.006Z,101266.59
2024-05-09T22:24:08.913Z,101259.03
2024-05-09T22:27:17.058Z,101259.38
2024-05-09T22:30:33.786Z,101263.56
2024-05-09T22:33:47.154Z,101258.88
2024-05-09T22:36:55.558Z,101255.53
2024-05-09T22:40:05.513Z,101258.06
2024-05-09T22:43:14.360Z,101249.66
2024-05-09T22:46:22.102Z,101250.63
2024-05-09T22:49:32.847Z,101250.09
2024-05-09T22:52:44.777Z,101256.41
2024-05-09T22:55:53.577Z,101250.13
2024-05-09T22:59:00.781Z,101252.78
2024-05-09T23:02:09.109Z,101255.41
2024-05-09T23:05:16.125Z,101252.22
2024-05-09T23:08:23.702Z,101255.22
2024-05-09T23:11:31.315Z,101248.66
2024-05-09T23:14:37.625Z,101239.81
2024-05-09T23:17:46.417Z,101251.13
2024-05-09T23:20:52.872Z,101245.09
2024-05-09T23:24:00.617Z,101246.03
2024-05-09T23:27:11.987Z,101238.06
2024-05-09T23:30:29.241Z,101237.66
2024-05-09T23:33:54.397Z,101237.09
2024-05-09T23:37:03.674Z,101240.19
2024-05-09T23:43:21.698Z,101229.69
2024-05-09T23:46:30.624Z,101231.97
2024-05-09T23:49:39.498Z,101227.06
2024-05-09T23:52:47.543Z,101223.94
2024-05-09T23:55:54.462Z,101219.78
2024-05-09T23:59:00.594Z,101222.75
